Portada
METAR-TAF:

METAR-TAF

Aeroports :

Carrollton, Geòrgia, Estats Units d'Amèrica

latitud: 33-37-54N, longitud: 085-09-08W, altitud: 354 m

Observació

L'informe es va fer fa 24 minuts, a les 16:55 UTC
Vent 8 kt del Est/Sud-Est amb ràfegues de 14 kt, variant entre Est i Sud/Sud-Est
Temperatura 25°C
Humitat 57%
Pressió 1025 hPa
Visibilitat: 16.1 km
Núvols disperses a una alçada de 4000 ft
Núvols disperses a una alçada de 4800 ft

METAR: KCTJ 011655Z AUTO 12008G14KT 090V150 10SM SCT040 SCT048 25/16 A3027 RMK AO2 T02540159

Hora: 13:19 (17:19 UTC)


TAF: manca

Observacions i pronòstics meteorològics de més de 4000 aeroports (METAR i TAF).

Les estacions disponibles són els punts grocs i vermells al mapa.

Posi el ratolí al punt desitjat per veure el nom de l'estació.

Feu clic per veure les observacions i els pronòstics meteorològics.

Per canviar el mapa: feu clic els botons verds amb una creu de color negre per apropar; al botó verd amb un guió per allunyar la imatge; o en les fletxes verdes per a mapes adjacents.


METAR-TAF: